Time;durP1;ratioP1;P1;durP2;ratioP2;P2;SDS_P1;SDS_P2;PMS_P1;PMS_P2;Temp;Humidity;BMP_temperature;BMP_pressure;BME280_temperature;BME280_humidity;BME280_pressure;Samples;Min_cycle;Max_cycle;Signal;HPM_P1;HPM_P2
2021/01/06 00:00:29;;;;;;;5.03;1.92;;;2.00;98.80;;;;;;4180850;28;20135;-91
2021/01/06 00:02:30;;;;;;;3.95;3.45;;;2.00;98.70;;;;;;4165452;28;20049;-91
2021/01/06 00:04:32;;;;;;;3.08;2.40;;;1.90;98.70;;;;;;4168275;28;20073;-90
2021/01/06 00:06:34;;;;;;;3.40;1.38;;;1.90;98.70;;;;;;4164452;28;20198;-90
2021/01/06 00:08:35;;;;;;;3.28;2.17;;;1.90;98.90;;;;;;4166378;28;20583;-90
2021/01/06 00:10:36;;;;;;;2.60;2.40;;;1.90;98.80;;;;;;4166771;28;20056;-91
2021/01/06 00:12:40;;;;;;;3.80;3.25;;;1.90;98.90;;;;;;4175514;28;20057;-90
2021/01/06 00:14:43;;;;;;;3.35;2.45;;;1.90;98.90;;;;;;4210239;28;20061;-90
2021/01/06 00:16:50;;;;;;;4.30;2.55;;;1.90;98.90;;;;;;4194795;28;20059;-90
2021/01/06 00:18:52;;;;;;;4.03;3.67;;;1.90;98.90;;;;;;4167030;28;20079;-90
2021/01/06 00:20:55;;;;;;;4.03;2.75;;;1.80;98.90;;;;;;4168722;28;20056;-92
2021/01/06 00:22:56;;;;;;;6.35;3.90;;;1.90;98.90;;;;;;4184610;28;20595;-90
2021/01/06 00:24:57;;;;;;;3.60;2.40;;;1.90;98.90;;;;;;4195429;28;20472;-89
2021/01/06 00:26:59;;;;;;;2.75;1.90;;;1.90;98.70;;;;;;4194377;28;20061;-90
2021/01/06 00:29:00;;;;;;;5.70;2.88;;;1.90;98.80;;;;;;4180164;28;20077;-89
2021/01/06 00:31:24;;;;;;;3.30;1.60;;;1.90;99.00;;;;;;4169478;28;20104;-90
2021/01/06 00:33:58;;;;;;;3.45;2.78;;;1.90;99.00;;;;;;4185406;28;20519;-90
2021/01/06 00:36:17;;;;;;;1.98;1.00;;;1.90;98.90;;;;;;4187240;28;20048;-89
2021/01/06 00:38:19;;;;;;;2.50;2.00;;;1.90;98.90;;;;;;4196590;28;20049;-89
2021/01/06 00:40:32;;;;;;;5.10;1.55;;;1.90;99.00;;;;;;4219484;28;20119;-90
2021/01/06 00:43:01;;;;;;;5.73;4.43;;;1.90;99.00;;;;;;4204453;28;20105;-89
2021/01/06 00:45:24;;;;;;;2.05;1.95;;;1.90;98.80;;;;;;4204897;28;20496;-89
2021/01/06 00:47:41;;;;;;;6.28;1.80;;;2.00;98.50;;;;;;4215687;28;20059;-89
2021/01/06 00:50:00;;;;;;;1.77;1.42;;;2.00;98.70;;;;;;4202507;28;20115;-89
2021/01/06 00:52:23;;;;;;;1.75;1.27;;;1.90;98.60;;;;;;4202998;28;20060;-89
2021/01/06 00:54:41;;;;;;;5.13;1.63;;;1.90;98.60;;;;;;4197962;28;20055;-91
2021/01/06 00:56:46;;;;;;;2.65;2.38;;;1.90;98.70;;;;;;4165074;28;20080;-90
2021/01/06 00:58:47;;;;;;;2.83;2.40;;;1.80;98.90;;;;;;4180408;28;20071;-90
2021/01/06 01:00:48;;;;;;;2.83;1.50;;;1.90;98.90;;;;;;4180618;28;20425;-89
2021/01/06 01:02:52;;;;;;;4.88;3.20;;;1.90;98.80;;;;;;4180782;28;20123;-89
2021/01/06 01:04:54;;;;;;;5.00;1.63;;;1.90;98.80;;;;;;4164621;28;20480;-91
2021/01/06 01:06:55;;;;;;;3.78;2.22;;;1.90;98.60;;;;;;4165041;28;20050;-89
2021/01/06 01:09:14;;;;;;;11.80;4.65;;;1.80;98.70;;;;;;4180528;28;20100;-90
2021/01/06 01:11:16;;;;;;;1.85;1.75;;;1.80;98.80;;;;;;4199221;28;20051;-90
2021/01/06 01:13:19;;;;;;;1.77;1.65;;;1.80;98.90;;;;;;4160061;28;20057;-90
2021/01/06 01:15:21;;;;;;;2.47;2.38;;;1.80;98.90;;;;;;4163800;28;20136;-92
2021/01/06 01:17:23;;;;;;;1.98;1.70;;;1.80;98.80;;;;;;4182125;28;20064;-91
2021/01/06 01:19:24;;;;;;;3.63;3.42;;;1.80;98.90;;;;;;4165482;28;20056;-90
2021/01/06 01:21:31;;;;;;;2.65;2.38;;;1.80;99.00;;;;;;4164011;28;20058;-91
2021/01/06 01:23:32;;;;;;;7.43;3.45;;;1.80;99.10;;;;;;4183868;28;20049;-90
2021/01/06 01:25:34;;;;;;;5.15;2.20;;;1.80;99.20;;;;;;4163719;28;20068;-91
2021/01/06 01:27:35;;;;;;;3.08;2.78;;;1.80;99.10;;;;;;4179628;28;20060;-90
2021/01/06 01:29:37;;;;;;;3.42;3.17;;;1.80;99.00;;;;;;4165020;28;20088;-91
2021/01/06 01:31:39;;;;;;;6.30;2.95;;;1.80;99.10;;;;;;4166649;28;20048;-91
2021/01/06 01:33:42;;;;;;;2.67;2.28;;;1.80;98.90;;;;;;4163806;28;20089;-91
2021/01/06 01:35:44;;;;;;;8.85;2.40;;;1.80;99.10;;;;;;4183888;28;20082;-90
2021/01/06 01:37:46;;;;;;;5.43;2.90;;;1.70;99.20;;;;;;4174211;28;20055;-90
2021/01/06 01:39:48;;;;;;;1.95;1.80;;;1.80;99.40;;;;;;4215557;28;20060;-91
2021/01/06 01:41:56;;;;;;;6.25;2.20;;;1.70;99.10;;;;;;4186011;28;20123;-90
2021/01/06 01:43:58;;;;;;;4.15;2.13;;;1.70;99.30;;;;;;4156230;28;20140;-92
2021/01/06 01:45:59;;;;;;;7.00;3.15;;;1.70;99.30;;;;;;4188167;28;20060;-90
2021/01/06 01:48:01;;;;;;;9.00;2.33;;;1.70;99.20;;;;;;4217523;28;20048;-91
2021/01/06 01:50:04;;;;;;;4.18;2.35;;;1.80;99.30;;;;;;4183325;28;20073;-91
2021/01/06 01:52:25;;;;;;;3.75;2.58;;;1.70;99.00;;;;;;4184675;28;20072;-91
2021/01/06 01:54:27;;;;;;;4.93;2.25;;;1.70;99.20;;;;;;4185897;28;20060;-90
2021/01/06 01:56:47;;;;;;;6.13;3.17;;;1.80;99.00;;;;;;4194965;28;20488;-92
2021/01/06 01:58:49;;;;;;;4.30;2.90;;;1.90;98.70;;;;;;4211012;28;20052;-90
2021/01/06 02:00:52;;;;;;;7.15;3.25;;;1.80;98.80;;;;;;4182592;28;20049;-91
2021/01/06 02:02:59;;;;;;;2.83;1.92;;;1.80;98.80;;;;;;4168707;28;20080;-90
2021/01/06 02:05:09;;;;;;;13.07;4.35;;;1.80;98.90;;;;;;4184800;28;20064;-92
2021/01/06 02:07:18;;;;;;;3.20;1.15;;;1.70;99.10;;;;;;4167313;28;20131;-92
2021/01/06 02:09:23;;;;;;;1.33;1.23;;;1.70;99.00;;;;;;4166490;28;20061;-91
2021/01/06 02:11:27;;;;;;;16.67;3.58;;;1.70;99.00;;;;;;4180351;28;20119;-91
2021/01/06 02:13:36;;;;;;;3.53;2.72;;;1.70;99.10;;;;;;4213520;28;20048;-91
2021/01/06 02:16:01;;;;;;;12.07;2.90;;;1.70;99.20;;;;;;4183406;28;20107;-90
2021/01/06 02:18:04;;;;;;;2.13;1.95;;;1.70;99.10;;;;;;4199765;28;20048;-91
2021/01/06 02:20:26;;;;;;;3.38;2.50;;;1.80;99.10;;;;;;4181426;28;20127;-91
2021/01/06 02:22:27;;;;;;;7.90;3.92;;;1.80;99.10;;;;;;4183262;28;20052;-90
2021/01/06 02:24:29;;;;;;;4.70;1.65;;;1.80;99.20;;;;;;4182759;28;20049;-91
2021/01/06 02:26:31;;;;;;;1.92;1.75;;;1.80;99.20;;;;;;4182944;28;20064;-91
2021/01/06 02:28:33;;;;;;;2.80;2.60;;;1.80;99.30;;;;;;4188642;28;20052;-91
2021/01/06 02:30:37;;;;;;;2.30;2.10;;;1.80;99.30;;;;;;4182828;28;20069;-90
2021/01/06 02:32:38;;;;;;;1.90;1.55;;;1.80;99.30;;;;;;4188816;28;20316;-91
2021/01/06 02:34:40;;;;;;;1.25;1.15;;;1.80;99.40;;;;;;4165577;28;20072;-92
2021/01/06 02:36:45;;;;;;;11.60;4.28;;;1.80;99.30;;;;;;4166341;28;20083;-89
2021/01/06 02:38:46;;;;;;;3.65;2.65;;;1.80;99.30;;;;;;4182256;28;20082;-90
2021/01/06 02:40:47;;;;;;;3.65;2.97;;;1.70;99.30;;;;;;4167542;28;20052;-90
2021/01/06 02:42:50;;;;;;;6.55;4.20;;;1.70;99.50;;;;;;4166154;28;20057;-90
2021/01/06 02:44:51;;;;;;;2.25;1.83;;;1.70;99.40;;;;;;4182298;28;20068;-91
2021/01/06 02:46:54;;;;;;;4.07;3.03;;;1.70;99.50;;;;;;4165048;28;20477;-91
2021/01/06 02:48:55;;;;;;;1.67;1.58;;;1.70;99.40;;;;;;4166052;28;20061;-91
2021/01/06 02:51:01;;;;;;;7.93;2.78;;;1.70;99.30;;;;;;4184008;28;20053;-90
2021/01/06 02:53:04;;;;;;;;;;;1.70;99.30;;;;;;4185248;28;20061;-91
2021/01/06 02:55:07;;;;;;;3.90;1.75;;;1.70;99.20;;;;;;4217973;28;20010;-90
2021/01/06 02:57:08;;;;;;;2.58;2.38;;;1.70;99.00;;;;;;4165626;28;20049;-91
2021/01/06 02:59:11;;;;;;;4.43;2.90;;;1.70;99.10;;;;;;4182505;28;20509;-90
2021/01/06 03:01:18;;;;;;;5.80;3.22;;;1.70;99.10;;;;;;4183295;28;20072;-91
2021/01/06 03:03:23;;;;;;;3.00;2.80;;;1.70;99.00;;;;;;4181527;28;20083;-91
2021/01/06 03:05:35;;;;;;;1.45;1.33;;;1.70;99.20;;;;;;4194121;28;20072;-91
2021/01/06 03:07:36;;;;;;;2.25;1.42;;;1.80;99.30;;;;;;4191595;28;20421;-92
2021/01/06 03:09:42;;;;;;;7.18;2.95;;;1.70;99.20;;;;;;4181787;28;20139;-93
2021/01/06 03:11:43;;;;;;;4.88;3.53;;;1.70;99.10;;;;;;4178422;28;20521;-91
2021/01/06 03:13:47;;;;;;;3.22;2.30;;;1.70;99.10;;;;;;4188642;28;20048;-91
2021/01/06 03:15:48;;;;;;;3.50;2.35;;;1.70;98.50;;;;;;4165172;28;20128;-90
2021/01/06 03:18:27;;;;;;;2.50;2.30;;;1.70;98.40;;;;;;4189252;28;20456;-90
2021/01/06 03:21:05;;;;;;;1.73;1.27;;;1.70;98.60;;;;;;4189974;28;20076;-91
2021/01/06 03:23:47;;;;;;;1.80;1.67;;;1.70;98.40;;;;;;4186038;28;20045;-89
2021/01/06 03:26:10;;;;;;;1.70;1.60;;;1.70;98.40;;;;;;4201458;28;20041;-90
2021/01/06 03:29:07;;;;;;;5.72;2.50;;;1.70;98.20;;;;;;4172740;28;20044;-91
2021/01/06 03:31:34;;;;;;;5.32;1.33;;;1.60;98.40;;;;;;4215162;28;20062;-90
2021/01/06 03:34:27;;;;;;;3.15;2.85;;;1.70;98.40;;;;;;4185996;28;20106;-91
2021/01/06 03:37:37;;;;;;;1.02;0.90;;;1.70;98.30;;;;;;4200641;28;20048;-90
2021/01/06 03:40:39;;;;;;;3.58;2.45;;;1.70;97.90;;;;;;4196894;28;20504;-90
2021/01/06 03:43:23;;;;;;;2.78;1.77;;;1.60;98.10;;;;;;4115177;28;20058;-91
2021/01/06 03:46:19;;;;;;;5.15;3.05;;;1.60;98.10;;;;;;4102043;28;20564;-92
2021/01/06 03:49:04;;;;;;;2.75;2.50;;;1.60;98.10;;;;;;4114818;28;20133;-90
2021/01/06 03:51:45;;;;;;;6.38;2.10;;;1.60;97.60;;;;;;4084619;29;20075;-90
2021/01/06 03:54:31;;;;;;;4.57;2.72;;;1.60;97.80;;;;;;4106072;28;20168;-90
2021/01/06 03:57:10;;;;;;;1.75;1.50;;;1.60;97.80;;;;;;4075813;29;20056;-89
2021/01/06 03:59:31;;;;;;;2.08;0.65;;;1.60;97.40;;;;;;4067384;29;20053;-89
2021/01/06 04:02:18;;;;;;;6.75;2.20;;;1.60;97.70;;;;;;4081944;29;20508;-89
2021/01/06 04:04:59;;;;;;;4.95;2.40;;;1.60;97.60;;;;;;4078217;29;20059;-88
2021/01/06 04:07:04;;;;;;;4.35;2.17;;;1.50;97.60;;;;;;4037571;29;20049;-89
2021/01/06 04:09:15;;;;;;;5.65;3.13;;;1.60;97.30;;;;;;4052802;29;20148;-90
2021/01/06 04:11:34;;;;;;;4.97;2.05;;;1.50;97.30;;;;;;4027913;29;20621;-88
2021/01/06 04:14:19;;;;;;;3.22;1.65;;;1.50;98.00;;;;;;4028348;29;20061;-91
2021/01/06 04:16:59;;;;;;;1.55;1.45;;;1.50;98.00;;;;;;4059318;29;20048;-90
2021/01/06 04:19:27;;;;;;;2.17;1.30;;;1.50;97.90;;;;;;4096614;28;20058;-89
2021/01/06 04:21:48;;;;;;;1.52;1.25;;;1.50;97.70;;;;;;4103501;28;20110;-90
2021/01/06 04:23:54;;;;;;;0.80;0.80;;;1.50;97.70;;;;;;4126014;28;20078;-90
2021/01/06 04:26:00;;;;;;;1.75;1.15;;;1.50;97.90;;;;;;4132513;28;20050;-90
2021/01/06 04:28:48;;;;;;;;;;;1.50;98.10;;;;;;4103640;28;20083;-89
2021/01/06 04:31:05;;;;;;;2.45;2.28;;;1.50;97.80;;;;;;4119254;28;20002;-89
2021/01/06 04:33:17;;;;;;;13.35;2.88;;;1.60;97.60;;;;;;4128912;28;20109;-89
2021/01/06 04:35:37;;;;;;;2.35;2.13;;;1.60;97.60;;;;;;4181360;28;20571;-90
2021/01/06 04:38:15;;;;;;;2.75;2.55;;;1.50;97.50;;;;;;4174694;28;20116;-90
2021/01/06 04:40:54;;;;;;;;;;;1.60;97.70;;;;;;4192228;28;20088;-89
2021/01/06 04:43:33;;;;;;;5.03;2.95;;;1.50;97.40;;;;;;4188508;28;19921;-89
2021/01/06 04:46:58;;;;;;;4.65;3.45;;;1.50;97.30;;;;;;4192834;28;20083;-88
2021/01/06 04:49:55;;;;;;;1.17;1.10;;;1.50;97.10;;;;;;4203208;28;20075;-89
2021/01/06 04:52:41;;;;;;;1.58;1.48;;;1.50;97.30;;;;;;4210936;28;20504;-89
2021/01/06 04:55:41;;;;;;;2.25;1.73;;;1.50;97.20;;;;;;4171256;28;20378;-89
2021/01/06 04:58:24;;;;;;;7.82;2.90;;;1.50;97.10;;;;;;4186590;28;20048;-90
2021/01/06 05:01:26;;;;;;;4.25;1.92;;;1.50;97.20;;;;;;4174247;28;20049;-89
2021/01/06 05:04:21;;;;;;;2.63;2.42;;;1.50;97.20;;;;;;4196929;28;20094;-89
2021/01/06 05:07:13;;;;;;;1.92;1.83;;;1.60;97.10;;;;;;4188986;28;20142;-90
2021/01/06 05:09:56;;;;;;;8.82;2.17;;;1.60;96.90;;;;;;4195945;28;20374;-89
2021/01/06 05:13:01;;;;;;;2.53;1.55;;;1.60;96.60;;;;;;4182849;28;20052;-90
2021/01/06 05:15:42;;;;;;;1.20;0.93;;;1.60;96.70;;;;;;4169212;28;20146;-89
2021/01/06 05:18:31;;;;;;;1.48;1.38;;;1.60;97.10;;;;;;4184095;28;20107;-89
2021/01/06 05:21:58;;;;;;;1.27;1.17;;;1.60;96.80;;;;;;4179346;28;20049;-91
2021/01/06 05:25:06;;;;;;;2.15;2.05;;;1.70;96.70;;;;;;4146183;28;20065;-90
2021/01/06 05:28:02;;;;;;;1.95;1.67;;;1.60;96.70;;;;;;4133414;28;20120;-91
2021/01/06 05:31:05;;;;;;;1.42;1.33;;;1.60;97.20;;;;;;4134269;28;20058;-90
2021/01/06 05:34:02;;;;;;;5.38;2.22;;;1.50;97.50;;;;;;4133934;28;20073;-89
2021/01/06 05:36:38;;;;;;;3.83;3.05;;;1.50;97.20;;;;;;4134619;28;20137;-90
2021/01/06 05:39:04;;;;;;;0.90;0.52;;;1.50;97.30;;;;;;4135273;28;20590;-90
2021/01/06 05:41:46;;;;;;;1.45;1.35;;;1.50;97.30;;;;;;4118449;28;20098;-89
2021/01/06 05:44:07;;;;;;;2.47;1.33;;;1.50;97.60;;;;;;4134456;28;20156;-90
2021/01/06 05:47:02;;;;;;;3.00;2.53;;;1.50;97.60;;;;;;4148579;28;20053;-90
2021/01/06 05:49:32;;;;;;;2.10;1.15;;;1.50;97.70;;;;;;4134137;28;20081;-89
2021/01/06 05:52:04;;;;;;;4.80;2.20;;;1.50;97.70;;;;;;4135256;28;20137;-90
2021/01/06 05:55:01;;;;;;;1.50;1.43;;;1.50;97.90;;;;;;4109910;28;20063;-90
2021/01/06 05:57:48;;;;;;;3.85;2.15;;;1.50;97.90;;;;;;4134470;28;20301;-89
2021/01/06 06:00:53;;;;;;;5.07;1.95;;;1.50;98.20;;;;;;4130828;28;20143;-90
2021/01/06 06:03:18;;;;;;;;;;;1.50;98.30;;;;;;4194921;28;20082;-89
2021/01/06 06:06:05;;;;;;;1.67;1.58;;;1.50;98.40;;;;;;4195659;28;19929;-91
2021/01/06 06:09:08;;;;;;;1.48;1.33;;;1.50;98.20;;;;;;4185891;28;20049;-90
2021/01/06 06:12:23;;;;;;;6.47;2.53;;;1.40;98.00;;;;;;4190953;28;20059;-90
2021/01/06 06:15:36;;;;;;;3.38;3.17;;;1.50;97.70;;;;;;4183267;28;20132;-90
2021/01/06 06:18:14;;;;;;;2.53;0.82;;;1.50;98.10;;;;;;4182794;28;20120;-89
2021/01/06 06:21:14;;;;;;;4.45;2.80;;;1.50;98.20;;;;;;4184153;28;20052;-89
2021/01/06 06:23:55;;;;;;;9.13;2.53;;;1.50;98.60;;;;;;4172517;28;20061;-89
2021/01/06 06:26:33;;;;;;;10.25;1.95;;;1.50;98.70;;;;;;4167037;28;20083;-89
2021/01/06 06:28:51;;;;;;;6.60;2.75;;;1.40;98.90;;;;;;4123136;28;20085;-91
2021/01/06 06:31:29;;;;;;;4.20;1.90;;;1.40;98.80;;;;;;4093449;28;20435;-91
2021/01/06 06:33:33;;;;;;;2.78;1.75;;;1.40;99.10;;;;;;4107394;28;20146;-92
2021/01/06 06:35:48;;;;;;;1.17;0.95;;;1.40;99.10;;;;;;4107999;29;20059;-91
2021/01/06 06:38:16;;;;;;;2.03;1.85;;;1.40;98.90;;;;;;4121223;28;20059;-91
2021/01/06 06:40:56;;;;;;;1.05;1.05;;;1.40;98.70;;;;;;4125244;28;20122;-93
2021/01/06 06:43:42;;;;;;;2.30;2.13;;;1.40;99.00;;;;;;4111723;28;20075;-93
2021/01/06 06:46:57;;;;;;;1.20;1.20;;;1.40;99.20;;;;;;4125162;28;20063;-92
2021/01/06 06:50:14;;;;;;;1.77;1.55;;;1.40;98.70;;;;;;4018365;29;20157;-91
2021/01/06 06:53:54;;;;;;;2.03;1.92;;;1.40;99.00;;;;;;3988121;29;20047;-92
2021/01/06 07:00:32;;;;;;;1.75;1.63;;;1.50;99.50;;;;;;3958865;30;20104;-91
2021/01/06 07:04:24;;;;;;;2.70;2.50;;;1.50;99.70;;;;;;3942772;30;20055;-90
2021/01/06 07:07:12;;;;;;;1.30;1.20;;;1.40;99.50;;;;;;3953763;30;20078;-92
2021/01/06 07:10:45;;;;;;;5.88;3.08;;;1.40;99.70;;;;;;3986679;29;20164;-92
2021/01/06 07:14:19;;;;;;;0.75;0.75;;;1.40;99.60;;;;;;3984342;29;20066;-92
2021/01/06 07:17:42;;;;;;;8.77;2.75;;;1.40;99.70;;;;;;3985452;29;20074;-92
2021/01/06 07:21:10;;;;;;;9.10;3.70;;;1.40;99.90;;;;;;3953732;30;20047;-91
2021/01/06 07:24:01;;;;;;;3.88;2.25;;;1.40;99.70;;;;;;3938508;30;20059;-91
2021/01/06 07:26:58;;;;;;;1.65;1.25;;;1.30;99.40;;;;;;3993935;29;20423;-85
2021/01/06 07:29:00;;;;;;;2.67;1.88;;;1.30;99.40;;;;;;3980262;29;20049;-84
2021/01/06 07:31:29;;;;;;;2.90;2.28;;;1.30;99.30;;;;;;3989737;29;20214;-82
2021/01/06 07:33:42;;;;;;;1.85;1.10;;;1.30;99.20;;;;;;4010546;29;20045;-84
2021/01/06 07:35:44;;;;;;;2.70;2.50;;;1.30;99.40;;;;;;4037928;29;20075;-80
2021/01/06 07:37:45;;;;;;;2.58;2.45;;;1.30;99.50;;;;;;4052211;29;20128;-86
2021/01/06 07:39:47;;;;;;;1.42;1.33;;;1.30;98.80;;;;;;4020215;29;20139;-85
2021/01/06 07:41:52;;;;;;;2.03;1.30;;;1.30;98.70;;;;;;4051092;29;20401;-85
2021/01/06 07:44:19;;;;;;;4.07;2.78;;;1.30;99.00;;;;;;4036075;29;20075;-84
2021/01/06 07:46:21;;;;;;;2.05;1.83;;;1.30;99.20;;;;;;4045113;29;20489;-85
2021/01/06 07:48:41;;;;;;;3.42;1.77;;;1.30;99.30;;;;;;4082086;29;20393;-85
2021/01/06 07:51:08;;;;;;;2.75;1.40;;;1.30;98.30;;;;;;4082213;29;20135;-84
2021/01/06 07:53:14;;;;;;;1.27;1.13;;;1.30;98.30;;;;;;4086982;29;20051;-84
2021/01/06 07:55:24;;;;;;;0.32;0.32;;;1.30;98.20;;;;;;4096362;28;20054;-84
2021/01/06 07:57:37;;;;;;;1.80;1.70;;;1.30;98.30;;;;;;4106302;28;20050;-84
2021/01/06 07:59:44;;;;;;;5.43;2.50;;;1.30;97.70;;;;;;4141472;28;20427;-83
2021/01/06 08:02:09;;;;;;;4.05;1.35;;;1.30;97.80;;;;;;4124755;28;20440;-84
2021/01/06 08:04:33;;;;;;;1.80;1.25;;;1.40;97.70;;;;;;4115621;28;20042;-82
2021/01/06 08:06:44;;;;;;;0.70;0.70;;;1.30;97.60;;;;;;4112592;28;20050;-85
2021/01/06 08:08:47;;;;;;;2.70;2.50;;;1.40;97.60;;;;;;4124458;28;20070;-87
2021/01/06 08:10:49;;;;;;;1.05;1.05;;;1.40;97.30;;;;;;4123311;28;20050;-92
2021/01/06 08:12:51;;;;;;;3.50;1.90;;;1.40;97.30;;;;;;4114194;28;20523;-86
2021/01/06 08:15:19;;;;;;;2.70;2.13;;;1.40;97.20;;;;;;4109382;28;20050;-87
2021/01/06 08:17:26;;;;;;;3.05;2.65;;;1.40;97.30;;;;;;4130265;28;20133;-86
2021/01/06 08:19:34;;;;;;;5.10;1.60;;;1.40;97.20;;;;;;4123259;28;20047;-85
2021/01/06 08:21:53;;;;;;;4.35;1.30;;;1.40;97.30;;;;;;4115769;28;20499;-88
2021/01/06 08:24:21;;;;;;;3.15;2.85;;;1.40;96.50;;;;;;4128063;28;20523;-92
2021/01/06 08:26:24;;;;;;;7.30;1.95;;;1.40;96.80;;;;;;4120205;28;20047;-88
2021/01/06 08:28:28;;;;;;;3.40;1.13;;;1.40;96.90;;;;;;4114716;28;20058;-86
2021/01/06 08:30:29;;;;;;;1.45;1.25;;;1.40;96.60;;;;;;4140497;28;20540;-86
2021/01/06 08:32:31;;;;;;;1.48;1.38;;;1.50;96.70;;;;;;4159027;28;20509;-86
2021/01/06 08:34:39;;;;;;;2.72;1.25;;;1.50;96.90;;;;;;4145802;28;20049;-86
2021/01/06 08:36:43;;;;;;;1.27;1.15;;;1.50;96.90;;;;;;4179864;28;20060;-85
2021/01/06 08:38:45;;;;;;;5.27;1.90;;;1.50;96.60;;;;;;4162875;28;20069;-83
2021/01/06 08:40:47;;;;;;;2.42;2.15;;;1.50;96.80;;;;;;4178419;28;20413;-84
2021/01/06 08:42:48;;;;;;;2.40;2.20;;;1.50;97.20;;;;;;4161674;28;20558;-86
2021/01/06 08:44:57;;;;;;;11.38;2.65;;;1.60;97.30;;;;;;4181642;28;20517;-85
2021/01/06 08:47:02;;;;;;;1.52;1.35;;;1.60;97.20;;;;;;4200417;28;20053;-86
2021/01/06 08:49:24;;;;;;;4.75;1.42;;;1.60;97.10;;;;;;4169322;28;20071;-84
2021/01/06 08:51:33;;;;;;;1.38;1.00;;;1.60;96.90;;;;;;4197465;28;20084;-85
2021/01/06 08:53:41;;;;;;;1.65;1.23;;;1.60;96.10;;;;;;4185098;28;20049;-84
2021/01/06 08:55:54;;;;;;;2.50;1.42;;;1.60;96.30;;;;;;4167645;28;20398;-89
2021/01/06 08:58:08;;;;;;;1.10;1.10;;;1.60;96.20;;;;;;4184769;28;20128;-90
2021/01/06 09:00:15;;;;;;;2.38;1.98;;;1.60;95.90;;;;;;4201645;28;20178;-88
2021/01/06 09:02:26;;;;;;;5.63;2.08;;;1.70;96.10;;;;;;4200798;28;20516;-88
2021/01/06 09:04:40;;;;;;;1.58;1.30;;;1.80;96.30;;;;;;4169914;28;20056;-85
2021/01/06 09:06:51;;;;;;;2.45;1.88;;;1.80;96.60;;;;;;4167413;28;20049;-84
2021/01/06 09:09:02;;;;;;;0.82;0.82;;;1.80;96.60;;;;;;4199640;28;20052;-87
2021/01/06 09:11:07;;;;;;;5.32;2.55;;;1.80;96.80;;;;;;4200553;28;20055;-87
2021/01/06 09:13:17;;;;;;;2.95;1.92;;;1.80;96.90;;;;;;4184594;28;20135;-85
2021/01/06 09:15:40;;;;;;;4.38;1.60;;;1.80;96.80;;;;;;4200394;28;20411;-89
2021/01/06 09:17:50;;;;;;;2.97;1.52;;;1.80;97.10;;;;;;4203580;28;20087;-88
2021/01/06 09:19:58;;;;;;;1.58;1.48;;;1.90;97.10;;;;;;4185523;28;20049;-86
2021/01/06 09:21:59;;;;;;;2.28;2.00;;;1.90;96.80;;;;;;4185991;28;20545;-87
2021/01/06 09:24:18;;;;;;;5.72;2.92;;;1.90;96.40;;;;;;4200555;28;20127;-86
2021/01/06 09:26:24;;;;;;;3.83;1.63;;;1.90;96.20;;;;;;4201665;28;20060;-89
2021/01/06 09:28:25;;;;;;;2.00;1.75;;;1.80;95.80;;;;;;4171633;28;20053;-86
2021/01/06 09:30:35;;;;;;;1.60;1.38;;;1.90;96.00;;;;;;4193156;28;20067;-84
2021/01/06 09:32:37;;;;;;;0.85;0.85;;;1.80;96.00;;;;;;4172099;28;20135;-86
2021/01/06 09:34:44;;;;;;;3.58;2.42;;;1.80;96.10;;;;;;4194307;28;20057;-86
2021/01/06 09:36:46;;;;;;;3.88;1.48;;;1.90;95.90;;;;;;4199057;28;20041;-87
2021/01/06 09:38:49;;;;;;;9.52;3.00;;;2.00;95.90;;;;;;4197640;28;20045;-88
2021/01/06 09:40:52;;;;;;;3.60;2.30;;;1.90;95.60;;;;;;4195478;28;20112;-87
2021/01/06 09:42:59;;;;;;;0.73;0.68;;;1.90;96.00;;;;;;4180661;28;20053;-88
2021/01/06 09:45:00;;;;;;;2.15;1.15;;;1.90;95.80;;;;;;4210595;28;20052;-88
2021/01/06 09:47:37;;;;;;;0.35;0.35;;;1.90;95.20;;;;;;4213062;28;20049;-88
2021/01/06 09:49:40;;;;;;;;;;;1.90;94.20;;;;;;4212858;28;20099;-87
2021/01/06 09:51:44;;;;;;;6.80;2.05;;;1.90;94.00;;;;;;4194481;28;19924;-87
2021/01/06 09:53:45;;;;;;;0.90;0.90;;;1.80;94.10;;;;;;4206160;28;20079;-88
2021/01/06 09:55:52;;;;;;;1.48;1.02;;;1.80;94.00;;;;;;4188905;28;20049;-87
2021/01/06 09:58:10;;;;;;;2.00;0.77;;;1.90;94.20;;;;;;4186610;28;20049;-87
2021/01/06 10:00:23;;;;;;;5.63;2.17;;;1.90;94.10;;;;;;4201054;28;20110;-87
2021/01/06 10:02:32;;;;;;;4.07;1.95;;;1.90;94.10;;;;;;4203746;28;20059;-89
2021/01/06 10:04:38;;;;;;;6.35;2.15;;;1.90;94.10;;;;;;4203222;28;20131;-88
2021/01/06 10:06:42;;;;;;;3.03;1.75;;;1.90;94.20;;;;;;4186125;28;20537;-87
2021/01/06 10:08:56;;;;;;;2.65;2.00;;;1.90;94.10;;;;;;4204379;28;20489;-87
2021/01/06 10:11:14;;;;;;;2.97;1.75;;;1.90;94.40;;;;;;4169907;28;20073;-86
2021/01/06 10:13:39;;;;;;;1.65;1.33;;;1.90;94.70;;;;;;4201996;28;20108;-85
2021/01/06 10:15:59;;;;;;;1.75;1.48;;;1.90;94.50;;;;;;4185774;28;20056;-87
2021/01/06 10:18:17;;;;;;;0.85;0.85;;;1.90;93.60;;;;;;4200743;28;20135;-87
2021/01/06 10:20:42;;;;;;;0.95;0.77;;;1.80;93.60;;;;;;4184369;28;20044;-89
2021/01/06 10:22:53;;;;;;;0.70;0.70;;;1.90;94.10;;;;;;4194731;28;20131;-88
2021/01/06 10:25:06;;;;;;;2.15;1.95;;;1.80;94.00;;;;;;4200645;28;20064;-87
2021/01/06 10:27:24;;;;;;;1.00;1.00;;;1.80;93.50;;;;;;4216299;28;20055;-89
2021/01/06 10:29:28;;;;;;;1.38;1.27;;;1.80;93.20;;;;;;4199604;28;20058;-87
2021/01/06 10:31:30;;;;;;;1.25;1.15;;;1.80;93.30;;;;;;4202249;28;20044;-87
2021/01/06 10:33:32;;;;;;;5.55;1.63;;;1.80;93.00;;;;;;4181972;28;20063;-86
2021/01/06 10:35:56;;;;;;;2.80;1.95;;;1.80;92.70;;;;;;4184687;28;20051;-86
2021/01/06 10:37:59;;;;;;;4.90;2.20;;;1.80;93.20;;;;;;4201141;28;20079;-84
2021/01/06 10:40:15;;;;;;;4.22;2.15;;;1.80;92.70;;;;;;4169479;28;20446;-92
2021/01/06 10:42:17;;;;;;;3.85;1.83;;;1.80;92.90;;;;;;4182989;28;20041;-86
2021/01/06 10:44:35;;;;;;;1.15;1.05;;;1.80;93.10;;;;;;4219112;28;20062;-91
2021/01/06 10:46:50;;;;;;;1.23;1.13;;;1.80;93.10;;;;;;4183029;28;20037;-87
2021/01/06 10:48:52;;;;;;;2.55;1.90;;;1.90;93.20;;;;;;4164082;28;20054;-87
2021/01/06 10:50:53;;;;;;;1.75;1.65;;;1.90;93.50;;;;;;4168259;28;20053;-88
2021/01/06 10:52:58;;;;;;;2.20;1.92;;;1.90;93.60;;;;;;4202562;28;20071;-86
2021/01/06 10:55:41;;;;;;;1.98;1.48;;;1.90;93.70;;;;;;4185573;28;20553;-87
2021/01/06 10:58:05;;;;;;;2.35;1.67;;;1.90;93.70;;;;;;4185411;28;20502;-87
2021/01/06 11:00:26;;;;;;;1.95;1.75;;;1.90;93.80;;;;;;4203840;28;20049;-86
2021/01/06 11:02:34;;;;;;;1.05;1.05;;;1.90;93.40;;;;;;4174789;28;20152;-87
2021/01/06 11:04:41;;;;;;;3.60;2.88;;;1.90;93.30;;;;;;4195064;28;20029;-87
2021/01/06 11:06:48;;;;;;;4.47;1.08;;;1.90;93.20;;;;;;4192030;28;20608;-86
2021/01/06 11:09:01;;;;;;;2.20;1.85;;;1.90;93.30;;;;;;4202962;28;20048;-94
2021/01/06 11:11:33;;;;;;;3.20;1.75;;;1.90;93.50;;;;;;4190972;28;20061;-88
2021/01/06 11:13:38;;;;;;;2.78;0.82;;;1.90;93.70;;;;;;4207542;28;20130;-92
2021/01/06 11:16:10;;;;;;;0.70;0.70;;;1.90;93.80;;;;;;4205938;28;20463;-92
2021/01/06 11:18:23;;;;;;;4.30;2.67;;;1.90;93.90;;;;;;4168514;28;20085;-88
2021/01/06 11:20:33;;;;;;;3.72;1.77;;;1.90;93.70;;;;;;4204370;28;20059;-93
2021/01/06 11:22:43;;;;;;;2.97;2.72;;;1.90;94.00;;;;;;4192629;28;20134;-90
2021/01/06 11:25:03;;;;;;;5.47;2.45;;;1.90;93.80;;;;;;4156589;28;20129;-92
2021/01/06 11:27:25;;;;;;;3.70;2.20;;;2.00;94.00;;;;;;4205916;28;20070;-91
2021/01/06 11:29:46;;;;;;;2.15;1.92;;;2.00;93.80;;;;;;4204790;28;20087;-89
2021/01/06 11:31:56;;;;;;;2.15;1.88;;;2.00;93.90;;;;;;4187138;28;20051;-89
2021/01/06 11:34:04;;;;;;;1.83;1.48;;;2.00;93.90;;;;;;4203916;28;20056;-91
2021/01/06 11:36:05;;;;;;;4.10;2.08;;;2.00;93.80;;;;;;4204736;28;20131;-90
2021/01/06 11:38:08;;;;;;;2.95;2.70;;;2.00;93.60;;;;;;4210540;28;20087;-90
2021/01/06 11:40:13;;;;;;;1.80;0.95;;;2.10;94.20;;;;;;4170257;28;20053;-88
2021/01/06 11:42:16;;;;;;;1.27;0.93;;;2.00;93.50;;;;;;4199082;28;20058;-86
2021/01/06 11:44:37;;;;;;;1.27;0.90;;;2.00;93.60;;;;;;4167637;28;20520;-88
2021/01/06 11:47:31;;;;;;;2.72;2.42;;;2.00;93.70;;;;;;4199251;28;20052;-88
2021/01/06 11:49:39;;;;;;;1.88;1.77;;;2.00;93.40;;;;;;4176241;28;20045;-85
2021/01/06 11:51:41;;;;;;;2.00;1.38;;;2.00;93.70;;;;;;4164755;28;20091;-86
2021/01/06 11:53:42;;;;;;;8.07;1.90;;;2.00;93.80;;;;;;4168077;28;20049;-87
2021/01/06 11:56:21;;;;;;;6.45;2.88;;;2.10;93.90;;;;;;4146782;28;20069;-88
2021/01/06 11:59:04;;;;;;;4.28;2.17;;;2.10;93.90;;;;;;4153520;28;20045;-88
2021/01/06 12:01:42;;;;;;;2.30;1.63;;;2.00;93.80;;;;;;4166686;28;20037;-89
2021/01/06 12:04:00;;;;;;;2.10;1.98;;;2.00;93.90;;;;;;4165376;28;20573;-90
2021/01/06 12:06:21;;;;;;;1.52;1.42;;;2.00;93.90;;;;;;4171384;28;20502;-87
2021/01/06 12:08:41;;;;;;;1.55;1.08;;;2.00;93.80;;;;;;4162862;28;20086;-89
2021/01/06 12:10:56;;;;;;;2.38;1.08;;;2.10;93.50;;;;;;4177280;28;20045;-87
2021/01/06 12:13:23;;;;;;;3.45;2.33;;;2.10;93.50;;;;;;4181501;28;20052;-92
2021/01/06 12:15:32;;;;;;;1.65;1.55;;;2.10;93.80;;;;;;4181959;28;20060;-87
2021/01/06 12:17:36;;;;;;;5.75;3.13;;;2.10;93.70;;;;;;4148993;28;20042;-90
2021/01/06 12:19:55;;;;;;;1.67;1.58;;;2.10;94.00;;;;;;4129590;28;20137;-86
2021/01/06 12:21:59;;;;;;;1.42;1.33;;;2.10;94.10;;;;;;4185608;28;20128;-85